Terminal Aerodrome Forecast
Issued by NWS Green Bay, WI

Home | Current Version | Previous Version | Graphics & Text | Print | Product List | Glossary On
Versions: 1 2 3 4 5 6 7 8 9 10 11 12 13 14 15 16 17 18 19 20 21 22 23 24 25 26 27 28 29 30 31 32 33 34 35 36 37 38 39 40 41
000
FTUS43 KGRB 300527
TAFGRB
TAF
KGRB 300527Z 3006/3106 05010KT P6SM -RASN BKN035
     FM300800 06008KT 4SM -RASN SCT018 OVC030
      TEMPO 3009/3013 1 1/2SM -SN BKN018
     FM301300 05012G19KT 2SM -RASN BKN010
     FM301600 04014G20KT 3SM -RA OVC006
     FM310100 03015G23KT 3SM -SN BR OVC012=

USA.gov is the U.S. government's official web portal to all federal, state and local government web resources and services.